createdAt,value
2022-09-10T00:01:29.807Z,21.37
2022-09-10T00:03:59.102Z,21.30
2022-09-10T00:06:28.440Z,21.25
2022-09-10T00:08:57.758Z,21.22
2022-09-10T00:11:29.068Z,21.18
2022-09-10T00:13:57.343Z,21.14
2022-09-10T00:16:25.781Z,21.08
2022-09-10T00:18:53.481Z,21.02
2022-09-10T00:21:22.207Z,21.00
2022-09-10T00:23:50.484Z,20.99
2022-09-10T00:26:21.843Z,20.97
2022-09-10T00:28:50.685Z,20.98
2022-09-10T00:31:22.759Z,20.95
2022-09-10T00:33:54.763Z,20.91
2022-09-10T00:36:26.563Z,20.88
2022-09-10T00:38:57.763Z,20.83
2022-09-10T00:41:26.282Z,20.83
2022-09-10T00:43:57.812Z,20.87
2022-09-10T00:46:43.437Z,20.92
2022-09-10T00:49:17.695Z,21.05
2022-09-10T00:51:48.298Z,21.17
2022-09-10T00:54:18.490Z,21.22
2022-09-10T00:56:47.010Z,21.21
2022-09-10T00:59:18.810Z,21.13
2022-09-10T01:01:47.745Z,21.06
2022-09-10T01:04:15.677Z,21.04
2022-09-10T01:06:46.440Z,21.02
2022-09-10T01:09:14.991Z,21.06
2022-09-10T01:12:12.278Z,21.06
2022-09-10T01:15:08.107Z,21.08
2022-09-10T01:17:58.576Z,21.15
2022-09-10T01:20:56.565Z,21.21
2022-09-10T01:24:13.965Z,21.28
2022-09-10T01:27:35.294Z,21.32
2022-09-10T01:30:12.966Z,21.42
2022-09-10T01:32:57.230Z,21.40
2022-09-10T01:35:37.513Z,21.40
2022-09-10T01:38:17.172Z,21.37
2022-09-10T01:40:46.415Z,21.32
2022-09-10T01:43:15.141Z,21.34
2022-09-10T01:46:01.517Z,21.31
2022-09-10T01:49:00.892Z,21.28
2022-09-10T01:51:47.498Z,21.30
2022-09-10T01:54:37.477Z,21.25
2022-09-10T01:57:24.060Z,21.23
2022-09-10T02:00:05.851Z,21.20
2022-09-10T02:02:41.862Z,21.11
2022-09-10T02:05:12.070Z,21.03
2022-09-10T02:07:39.591Z,20.97
2022-09-10T02:10:09.849Z,20.93
2022-09-10T02:12:37.511Z,20.90
2022-09-10T02:15:10.513Z,20.89
2022-09-10T02:17:40.188Z,20.91
2022-09-10T02:20:14.382Z,20.96
2022-09-10T02:22:49.986Z,20.98
2022-09-10T02:25:17.456Z,21.02
2022-09-10T02:27:45.389Z,21.04
2022-09-10T02:30:14.427Z,21.05
2022-09-10T02:32:42.904Z,21.05
2022-09-10T02:35:10.281Z,21.03
2022-09-10T02:37:37.666Z,21.01
2022-09-10T02:40:06.417Z,21.04
2022-09-10T02:42:55.555Z,21.04
2022-09-10T02:45:24.203Z,21.04
2022-09-10T02:47:51.567Z,21.04
2022-09-10T02:50:19.217Z,21.04
2022-09-10T02:52:46.921Z,21.06
2022-09-10T02:55:14.613Z,21.11
2022-09-10T02:57:42.271Z,21.17
2022-09-10T03:00:11.258Z,21.22
2022-09-10T03:02:40.363Z,21.28
2022-09-10T03:05:08.694Z,21.30
2022-09-10T03:07:36.002Z,21.33
2022-09-10T03:10:03.938Z,21.35
2022-09-10T03:12:31.473Z,21.37
2022-09-10T03:14:59.073Z,21.40
2022-09-10T03:17:26.458Z,21.42
2022-09-10T03:19:55.079Z,21.44
2022-09-10T03:22:22.420Z,21.47
2022-09-10T03:24:50.028Z,21.51
2022-09-10T03:27:18.160Z,21.56
2022-09-10T03:29:45.432Z,21.59
2022-09-10T03:32:12.707Z,21.63
2022-09-10T03:34:39.970Z,21.68
2022-09-10T03:37:08.587Z,21.71
2022-09-10T03:39:35.989Z,21.77
2022-09-10T03:42:05.134Z,21.79
2022-09-10T03:44:33.608Z,21.81
2022-09-10T03:47:00.994Z,21.81
2022-09-10T03:49:28.853Z,21.80
2022-09-10T03:51:56.185Z,21.81
2022-09-10T03:54:24.877Z,21.83
2022-09-10T03:56:52.110Z,21.87
2022-09-10T03:59:19.499Z,21.89
2022-09-10T04:01:47.252Z,21.90
2022-09-10T04:04:15.042Z,21.83
2022-09-10T04:06:43.307Z,21.70
2022-09-10T04:09:11.362Z,21.65
2022-09-10T04:11:40.162Z,21.61
2022-09-10T04:14:07.849Z,21.59
2022-09-10T04:16:35.918Z,21.58
2022-09-10T04:19:03.334Z,21.58
2022-09-10T04:21:31.539Z,21.60
2022-09-10T04:24:02.048Z,21.57
2022-09-10T04:26:29.329Z,21.54
2022-09-10T04:28:57.978Z,21.54
2022-09-10T04:31:25.297Z,21.56
2022-09-10T04:33:53.671Z,21.56
2022-09-10T04:36:20.990Z,21.51
2022-09-10T04:38:48.369Z,21.43
2022-09-10T04:41:15.736Z,21.34
2022-09-10T04:43:43.599Z,21.24
2022-09-10T04:46:12.602Z,21.16
2022-09-10T04:51:16.007Z,21.09
2022-09-10T04:53:44.390Z,21.07
2022-09-10T04:56:12.023Z,21.08
2022-09-10T04:58:39.971Z,21.11
2022-09-10T05:01:07.704Z,21.15
2022-09-10T05:03:36.669Z,21.19
2022-09-10T05:06:05.170Z,21.23
2022-09-10T05:08:32.974Z,21.28
2022-09-10T05:11:02.697Z,21.35
2022-09-10T05:13:31.073Z,21.43
2022-09-10T05:16:01.632Z,21.47
2022-09-10T05:18:28.933Z,21.53
2022-09-10T05:20:57.675Z,21.52
2022-09-10T05:23:25.613Z,21.51
2022-09-10T05:25:52.861Z,21.48
2022-09-10T05:28:21.939Z,21.49
2022-09-10T05:30:51.735Z,21.49
2022-09-10T05:33:19.335Z,21.49
2022-09-10T05:35:51.598Z,21.54
2022-09-10T05:38:20.750Z,21.61
2022-09-10T05:40:48.621Z,21.70
2022-09-10T05:43:15.898Z,21.77
2022-09-10T05:45:43.218Z,21.76
2022-09-10T05:48:10.501Z,21.77
2022-09-10T05:50:38.538Z,21.71
2022-09-10T05:53:06.088Z,21.68
2022-09-10T05:55:34.838Z,21.59
2022-09-10T05:58:02.944Z,21.48
2022-09-10T06:00:30.531Z,21.39
2022-09-10T06:02:58.030Z,21.37
2022-09-10T06:05:25.646Z,21.39
2022-09-10T06:07:52.977Z,21.40
2022-09-10T06:10:20.268Z,21.47
2022-09-10T06:12:51.955Z,21.50
2022-09-10T06:15:21.142Z,21.49
2022-09-10T06:17:48.601Z,21.45
2022-09-10T06:20:16.124Z,21.44
2022-09-10T06:22:43.383Z,21.45
2022-09-10T06:25:10.727Z,21.48
2022-09-10T06:27:38.259Z,21.52
2022-09-10T06:30:08.290Z,21.57
2022-09-10T06:32:35.584Z,21.61
2022-09-10T06:35:02.817Z,21.60
2022-09-10T06:37:35.285Z,21.63
2022-09-10T06:40:03.592Z,21.66
2022-09-10T06:42:32.175Z,21.65
2022-09-10T06:45:00.317Z,21.65
2022-09-10T06:50:16.473Z,21.71
2022-09-10T06:52:43.777Z,21.76
2022-09-10T06:55:11.015Z,21.83
2022-09-10T06:57:38.330Z,21.92
2022-09-10T07:00:07.293Z,21.94
2022-09-10T07:02:35.910Z,21.93
2022-09-10T07:05:03.347Z,21.96
2022-09-10T07:07:31.357Z,21.94
2022-09-10T07:09:58.589Z,21.94
2022-09-10T07:12:26.014Z,21.99
2022-09-10T07:14:53.650Z,22.05
2022-09-10T07:17:21.058Z,22.16
2022-09-10T07:19:49.629Z,22.28
2022-09-10T07:22:17.161Z,22.29
2022-09-10T07:24:45.343Z,22.32
2022-09-10T07:27:13.095Z,22.34
2022-09-10T07:29:40.360Z,22.37
2022-09-10T07:32:10.577Z,22.43
2022-09-10T07:34:40.570Z,22.53
2022-09-10T07:37:09.243Z,22.65
2022-09-10T07:39:36.541Z,22.71
2022-09-10T07:42:04.253Z,22.78
2022-09-10T07:44:31.507Z,22.78
2022-09-10T07:46:59.182Z,22.78
2022-09-10T07:49:27.831Z,22.77
2022-09-10T07:51:59.669Z,22.76
2022-09-10T07:54:28.709Z,22.80
2022-09-10T07:56:56.044Z,22.85
2022-09-10T07:59:23.277Z,22.95
2022-09-10T08:01:50.719Z,22.98
2022-09-10T08:04:19.137Z,22.98
2022-09-10T08:06:46.658Z,23.01
2022-09-10T08:09:14.889Z,23.05
2022-09-10T08:11:43.483Z,23.01
2022-09-10T08:14:13.287Z,22.99
2022-09-10T08:16:44.282Z,23.02
2022-09-10T08:19:13.871Z,23.05
2022-09-10T08:21:41.203Z,23.11
2022-09-10T08:24:10.951Z,23.18
2022-09-10T08:26:38.204Z,23.21
2022-09-10T08:29:07.115Z,23.26
2022-09-10T08:31:34.720Z,23.26
2022-09-10T08:34:01.970Z,23.26
2022-09-10T08:36:29.276Z,23.30
2022-09-10T08:39:01.399Z,23.37
2022-09-10T08:41:52.745Z,23.40
2022-09-10T08:44:43.081Z,23.44
2022-09-10T08:47:29.614Z,23.51
2022-09-10T08:50:04.149Z,23.57
2022-09-10T08:52:41.374Z,23.57
2022-09-10T08:55:25.663Z,23.60
2022-09-10T08:57:59.364Z,23.70
2022-09-10T09:00:34.150Z,23.86
2022-09-10T09:03:13.090Z,24.10
2022-09-10T09:05:46.480Z,24.33
2022-09-10T09:08:19.665Z,24.44
2022-09-10T09:10:50.598Z,24.45
2022-09-10T09:14:02.940Z,24.48
2022-09-10T09:16:59.666Z,24.67
2022-09-10T09:19:34.694Z,24.86
2022-09-10T09:22:17.224Z,25.00
2022-09-10T09:24:54.859Z,25.09
2022-09-10T09:27:22.215Z,25.18
2022-09-10T09:29:57.225Z,25.20
2022-09-10T09:32:28.704Z,25.18
2022-09-10T09:35:09.959Z,25.04
2022-09-10T09:37:41.549Z,24.85
2022-09-10T09:40:21.178Z,24.67
2022-09-10T09:42:58.144Z,24.61
2022-09-10T09:45:37.221Z,24.60
2022-09-10T09:48:11.937Z,24.56
2022-09-10T09:50:43.836Z,24.51
2022-09-10T09:53:20.421Z,24.38
2022-09-10T09:55:53.627Z,24.20
2022-09-10T09:58:31.082Z,24.07
2022-09-10T10:01:20.108Z,24.02
2022-09-10T10:03:54.090Z,24.05
2022-09-10T10:06:25.133Z,24.10
2022-09-10T10:09:00.144Z,24.17
2022-09-10T10:11:51.811Z,24.28
2022-09-10T10:14:39.425Z,24.39
2022-09-10T10:17:38.486Z,24.46
2022-09-10T10:20:16.613Z,24.70
2022-09-10T10:22:45.803Z,24.93
2022-09-10T10:25:45.493Z,25.16
2022-09-10T10:28:20.917Z,25.34
2022-09-10T10:30:53.518Z,25.45
2022-09-10T10:33:28.306Z,25.54
2022-09-10T10:36:10.766Z,25.60
2022-09-10T10:38:41.895Z,25.68
2022-09-10T10:41:45.327Z,25.68
2022-09-10T10:44:48.000Z,25.70
2022-09-10T10:47:34.169Z,25.77
2022-09-10T10:50:18.382Z,25.85
2022-09-10T10:53:15.593Z,25.98
2022-09-10T10:55:55.357Z,26.19
2022-09-10T10:58:41.506Z,26.43
2022-09-10T11:01:21.381Z,26.76
2022-09-10T11:04:01.645Z,26.91
2022-09-10T11:06:40.533Z,27.09
2022-09-10T11:09:22.831Z,27.44
2022-09-10T11:11:57.817Z,27.94
2022-09-10T11:14:38.218Z,28.32
2022-09-10T11:17:16.196Z,28.42
2022-09-10T11:20:26.696Z,28.52
2022-09-10T11:22:54.024Z,28.43
2022-09-10T11:25:30.661Z,28.33
2022-09-10T11:28:11.378Z,28.23
2022-09-10T11:30:45.247Z,28.04
2022-09-10T11:33:23.418Z,28.01
2022-09-10T11:36:01.669Z,28.09
2022-09-10T11:38:44.189Z,28.17
2022-09-10T11:41:19.634Z,28.38
2022-09-10T11:44:01.344Z,28.65
2022-09-10T11:46:37.809Z,28.91
2022-09-10T11:49:16.138Z,29.11
2022-09-10T11:51:45.726Z,29.23
2022-09-10T11:54:17.476Z,29.33
2022-09-10T11:57:01.348Z,29.38
2022-09-10T12:00:12.505Z,29.25
2022-09-10T12:03:40.916Z,29.22
2022-09-10T12:06:22.303Z,29.17
2022-09-10T12:09:08.455Z,29.01
2022-09-10T12:11:47.418Z,28.96
2022-09-10T12:14:19.601Z,28.93
2022-09-10T12:16:53.956Z,28.94
2022-09-10T12:19:29.234Z,28.83
2022-09-10T12:22:01.831Z,28.64
2022-09-10T12:24:33.484Z,28.46
2022-09-10T12:27:03.958Z,28.41
2022-09-10T12:29:35.671Z,28.35
2022-09-10T12:32:36.185Z,28.15
2022-09-10T12:35:44.856Z,27.98
2022-09-10T12:38:55.613Z,27.70
2022-09-10T12:42:02.193Z,27.58
2022-09-10T12:44:47.525Z,27.59
2022-09-10T12:47:56.360Z,27.64
2022-09-10T12:50:45.956Z,27.67
2022-09-10T12:53:54.525Z,27.59
2022-09-10T12:57:12.741Z,27.65
2022-09-10T13:00:22.188Z,27.59
2022-09-10T13:02:58.746Z,27.66
2022-09-10T13:05:38.399Z,27.76
2022-09-10T13:08:20.483Z,27.93
2022-09-10T13:11:13.285Z,28.14
2022-09-10T13:13:46.430Z,28.30
2022-09-10T13:16:19.072Z,28.46
2022-09-10T13:18:48.384Z,28.63
2022-09-10T13:21:54.809Z,28.76
2022-09-10T13:24:59.793Z,28.86
2022-09-10T13:27:38.909Z,29.02
2022-09-10T13:30:18.893Z,29.10
2022-09-10T13:32:53.238Z,29.13
2022-09-10T13:36:05.518Z,29.05
2022-09-10T13:39:20.150Z,29.02
2022-09-10T13:42:11.774Z,28.96
2022-09-10T13:45:00.454Z,28.91
2022-09-10T13:47:35.787Z,28.88
2022-09-10T13:50:14.504Z,28.82
2022-09-10T13:52:46.981Z,28.79
2022-09-10T13:55:20.636Z,28.76
2022-09-10T13:57:51.863Z,28.77
2022-09-10T14:00:24.033Z,28.73
2022-09-10T14:02:54.272Z,28.71
2022-09-10T14:05:46.876Z,28.59
2022-09-10T14:08:21.659Z,28.53
2022-09-10T14:10:55.814Z,28.46
2022-09-10T14:13:32.007Z,28.38
2022-09-10T14:16:02.548Z,28.33
2022-09-10T14:18:42.866Z,28.26
2022-09-10T14:21:14.573Z,28.20
2022-09-10T14:23:47.528Z,28.11
2022-09-10T14:26:23.587Z,28.02
2022-09-10T14:28:58.804Z,27.90
2022-09-10T14:31:36.309Z,27.78
2022-09-10T14:34:32.125Z,27.66
2022-09-10T14:37:28.503Z,27.54
2022-09-10T14:39:56.714Z,27.57
2022-09-10T14:42:31.295Z,27.57
2022-09-10T14:44:58.557Z,27.57
2022-09-10T14:47:32.433Z,27.51
2022-09-10T14:50:31.109Z,27.40
2022-09-10T14:52:59.929Z,27.39
2022-09-10T14:55:32.263Z,27.38
2022-09-10T14:57:59.769Z,27.38
2022-09-10T15:00:28.222Z,27.37
2022-09-10T15:02:57.286Z,27.40
2022-09-10T15:05:24.741Z,27.40
2022-09-10T15:07:52.008Z,27.41
2022-09-10T15:10:21.062Z,27.44
2022-09-10T15:12:52.014Z,27.46
2022-09-10T15:15:19.526Z,27.46
2022-09-10T15:17:46.846Z,27.46
2022-09-10T15:20:15.117Z,27.40
2022-09-10T15:22:43.279Z,27.33
2022-09-10T15:25:37.947Z,27.17
2022-09-10T15:28:07.459Z,27.13
2022-09-10T15:30:36.000Z,27.08
2022-09-10T15:33:04.139Z,27.07
2022-09-10T15:35:31.398Z,27.11
2022-09-10T15:38:01.438Z,27.13
2022-09-10T15:40:30.096Z,27.13
2022-09-10T15:42:57.847Z,27.10
2022-09-10T15:45:25.237Z,27.05
2022-09-10T15:47:52.557Z,27.02
2022-09-10T15:50:19.890Z,26.96
2022-09-10T15:52:47.437Z,26.90
2022-09-10T15:55:14.995Z,26.84
2022-09-10T15:57:43.587Z,26.79
2022-09-10T16:00:13.250Z,26.75
2022-09-10T16:02:42.130Z,26.73
2022-09-10T16:05:09.944Z,26.72
2022-09-10T16:07:37.238Z,26.73
2022-09-10T16:10:06.279Z,26.74
2022-09-10T16:12:33.770Z,26.73
2022-09-10T16:15:02.749Z,26.68
2022-09-10T16:17:31.745Z,26.63
2022-09-10T16:20:00.187Z,26.58
2022-09-10T16:22:28.190Z,26.53
2022-09-10T16:24:55.422Z,26.49
2022-09-10T16:27:22.837Z,26.44
2022-09-10T16:29:50.302Z,26.40
2022-09-10T16:32:18.937Z,26.36
2022-09-10T16:34:46.287Z,26.34
2022-09-10T16:37:14.166Z,26.33
2022-09-10T16:39:41.504Z,26.35
2022-09-10T16:42:09.711Z,26.35
2022-09-10T16:44:36.957Z,26.38
2022-09-10T16:47:04.507Z,26.38
2022-09-10T16:49:33.176Z,26.38
2022-09-10T16:52:00.553Z,26.38
2022-09-10T16:54:29.050Z,26.36
2022-09-10T16:56:56.360Z,26.35
2022-09-10T16:59:26.134Z,26.33
2022-09-10T17:01:53.911Z,26.29
2022-09-10T17:04:28.236Z,26.25
2022-09-10T17:06:57.974Z,26.17
2022-09-10T17:09:25.937Z,26.09
2022-09-10T17:11:53.426Z,26.01
2022-09-10T17:14:21.214Z,25.92
2022-09-10T17:16:48.669Z,25.87
2022-09-10T17:19:18.578Z,25.82
2022-09-10T17:21:51.041Z,25.77
2022-09-10T17:24:22.811Z,25.70
2022-09-10T17:26:51.769Z,25.64
2022-09-10T17:29:22.264Z,25.60
2022-09-10T17:31:55.325Z,25.57
2022-09-10T17:34:24.543Z,25.54
2022-09-10T17:36:52.356Z,25.52
2022-09-10T17:39:21.063Z,25.53
2022-09-10T17:41:48.504Z,25.50
2022-09-10T17:44:16.626Z,25.47
2022-09-10T17:46:45.020Z,25.43
2022-09-10T17:49:14.213Z,25.40
2022-09-10T17:51:43.121Z,25.39
2022-09-10T17:54:11.864Z,25.35
2022-09-10T17:56:41.865Z,25.32
2022-09-10T17:59:16.042Z,25.27
2022-09-10T18:01:43.405Z,25.26
2022-09-10T18:04:15.677Z,25.25
2022-09-10T18:06:46.803Z,25.23
2022-09-10T18:09:16.727Z,25.19
2022-09-10T18:11:45.434Z,25.18
2022-09-10T18:14:19.682Z,25.15
2022-09-10T18:16:47.420Z,25.12
2022-09-10T18:19:16.933Z,25.09
2022-09-10T18:21:46.291Z,25.07
2022-09-10T18:24:16.874Z,25.04
2022-09-10T18:26:49.045Z,24.98
2022-09-10T18:29:19.615Z,24.98
2022-09-10T18:31:49.464Z,24.95
2022-09-10T18:34:23.537Z,24.95
2022-09-10T18:36:57.529Z,24.93
2022-09-10T18:39:27.272Z,24.89
2022-09-10T18:41:57.539Z,24.83
2022-09-10T18:44:27.472Z,24.79
2022-09-10T18:46:56.026Z,24.76
2022-09-10T18:49:25.273Z,24.70
2022-09-10T18:51:55.164Z,24.65
2022-09-10T18:54:24.584Z,24.58
2022-09-10T18:56:53.323Z,24.52
2022-09-10T18:59:24.497Z,24.48
2022-09-10T19:01:53.995Z,24.45
2022-09-10T19:04:25.310Z,24.43
2022-09-10T19:06:54.217Z,24.42
2022-09-10T19:09:24.115Z,24.37
2022-09-10T19:11:54.147Z,24.34
2022-09-10T19:14:26.330Z,24.27
2022-09-10T19:16:56.255Z,24.22
2022-09-10T19:19:26.423Z,24.16
2022-09-10T19:21:57.155Z,24.11
2022-09-10T19:24:37.763Z,24.08
2022-09-10T19:27:11.643Z,24.04
2022-09-10T19:29:43.010Z,24.03
2022-09-10T19:32:11.314Z,24.00
2022-09-10T19:34:38.928Z,23.96
2022-09-10T19:37:07.093Z,23.96
2022-09-10T19:39:34.388Z,23.95
2022-09-10T19:42:01.785Z,23.91
2022-09-10T19:44:29.121Z,23.89
2022-09-10T19:46:58.688Z,23.87
2022-09-10T19:49:26.011Z,23.86
2022-09-10T19:51:54.020Z,23.83
2022-09-10T19:54:22.728Z,23.82
2022-09-10T19:56:50.077Z,23.80
2022-09-10T19:59:17.587Z,23.79
2022-09-10T20:01:46.090Z,23.76
2022-09-10T20:04:15.079Z,23.73
2022-09-10T20:06:43.431Z,23.70
2022-09-10T20:09:10.781Z,23.64
2022-09-10T20:11:38.887Z,23.57
2022-09-10T20:14:10.095Z,23.49
2022-09-10T20:16:38.933Z,23.43
2022-09-10T20:19:07.094Z,23.37
2022-09-10T20:21:37.060Z,23.32
2022-09-10T20:24:07.746Z,23.26
2022-09-10T20:26:46.290Z,23.21
2022-09-10T20:29:15.870Z,23.15
2022-09-10T20:31:44.636Z,23.12
2022-09-10T20:34:14.399Z,23.09
2022-09-10T20:36:43.672Z,23.04
2022-09-10T20:39:14.416Z,22.99
2022-09-10T20:41:41.963Z,22.97
2022-09-10T20:44:13.670Z,22.97
2022-09-10T20:46:41.725Z,22.98
2022-09-10T20:49:11.549Z,23.00
2022-09-10T20:51:40.457Z,23.03
2022-09-10T20:54:14.054Z,23.05
2022-09-10T20:56:42.219Z,23.02
2022-09-10T20:59:12.172Z,23.00
2022-09-10T21:01:39.521Z,22.99
2022-09-10T21:04:06.936Z,23.00
2022-09-10T21:06:35.226Z,23.02
2022-09-10T21:09:04.026Z,23.08
2022-09-10T21:11:36.302Z,23.08
2022-09-10T21:14:07.341Z,23.10
2022-09-10T21:16:37.082Z,23.09
2022-09-10T21:19:09.908Z,23.05
2022-09-10T21:21:41.716Z,22.99
2022-09-10T21:24:12.452Z,22.94
2022-09-10T21:26:45.905Z,22.89
2022-09-10T21:29:15.653Z,22.85
2022-09-10T21:31:43.800Z,22.82
2022-09-10T21:34:11.703Z,22.76
2022-09-10T21:36:41.241Z,22.73
2022-09-10T21:39:14.337Z,22.70
2022-09-10T21:41:45.827Z,22.69
2022-09-10T21:44:16.198Z,22.68
2022-09-10T21:46:45.159Z,22.68
2022-09-10T21:49:13.027Z,22.66
2022-09-10T21:51:41.247Z,22.65
2022-09-10T21:54:14.607Z,22.62
2022-09-10T21:56:43.350Z,22.63
2022-09-10T21:59:12.561Z,22.64
2022-09-10T22:01:43.652Z,22.69
2022-09-10T22:04:12.412Z,22.71
2022-09-10T22:06:39.959Z,22.68
2022-09-10T22:09:10.019Z,22.64
2022-09-10T22:11:41.766Z,22.60
2022-09-10T22:14:14.857Z,22.56
2022-09-10T22:16:42.973Z,22.56
2022-09-10T22:19:15.547Z,22.55
2022-09-10T22:21:42.907Z,22.56
2022-09-10T22:24:13.080Z,22.55
2022-09-10T22:26:43.241Z,22.56
2022-09-10T22:29:15.358Z,22.58
2022-09-10T22:31:42.814Z,22.57
2022-09-10T22:34:13.706Z,22.56
2022-09-10T22:36:44.043Z,22.52
2022-09-10T22:39:14.169Z,22.47
2022-09-10T22:41:41.889Z,22.41
2022-09-10T22:44:11.197Z,22.35
2022-09-10T22:46:40.034Z,22.29
2022-09-10T22:49:08.517Z,22.27
2022-09-10T22:51:40.831Z,22.24
2022-09-10T22:54:10.649Z,22.21
2022-09-10T22:56:38.377Z,22.17
2022-09-10T22:59:06.958Z,22.14
2022-09-10T23:01:38.350Z,22.12
2022-09-10T23:04:08.007Z,22.11
2022-09-10T23:06:38.613Z,22.07
2022-09-10T23:09:10.635Z,22.04
2022-09-10T23:11:39.120Z,22.02
2022-09-10T23:14:11.083Z,22.00
2022-09-10T23:16:42.348Z,22.00
2022-09-10T23:19:14.033Z,21.98
2022-09-10T23:21:44.174Z,21.98
2022-09-10T23:24:14.405Z,21.96
2022-09-10T23:26:43.035Z,21.93
2022-09-10T23:29:11.071Z,21.92
2022-09-10T23:31:40.959Z,21.89
2022-09-10T23:34:12.463Z,21.88
2022-09-10T23:36:58.303Z,21.86
2022-09-10T23:39:25.592Z,21.87
2022-09-10T23:41:56.766Z,21.85
2022-09-10T23:44:24.601Z,21.85
2022-09-10T23:46:53.594Z,21.81
2022-09-10T23:49:21.382Z,21.77
2022-09-10T23:51:49.110Z,21.76
2022-09-10T23:54:17.114Z,21.77
2022-09-10T23:56:44.702Z,21.79
2022-09-10T23:59:12.467Z,21.80
